Time;durP1;ratioP1;P1;durP2;ratioP2;P2;SDS_P1;SDS_P2;PMS_P1;PMS_P2;Temp;Humidity;BMP_temperature;BMP_pressure;BME280_temperature;BME280_humidity;BME280_pressure;Samples;Min_cycle;Max_cycle;Signal;HPM_P1;HPM_P2
2022/07/21 00:01:27;;;;;;;15.77;13.33;;;27.50;60.40;;;;;;5126187;27;20461;-88
2022/07/21 00:08:27;;;;;;;14.30;12.07;;;27.90;60.50;;;;;;5122733;27;20463;-88
2022/07/21 00:10:54;;;;;;;16.57;11.87;;;27.50;59.90;;;;;;5143677;27;20845;-88
2022/07/21 00:17:28;;;;;;;18.83;13.03;;;27.40;60.00;;;;;;5126017;27;20431;-87
2022/07/21 00:19:55;;;;;;;13.93;11.80;;;27.30;60.80;;;;;;5109141;27;20463;-88
2022/07/21 00:22:22;;;;;;;15.23;12.10;;;27.00;61.10;;;;;;5024026;27;20465;-87
2022/07/21 00:24:50;;;;;;;17.50;12.50;;;27.00;61.50;;;;;;5127182;27;20460;-88
2022/07/21 00:27:17;;;;;;;12.10;10.23;;;26.90;61.50;;;;;;5110099;27;20507;-89
2022/07/21 00:29:44;;;;;;;14.50;12.03;;;26.90;61.10;;;;;;5126146;27;20456;-88
2022/07/21 00:32:11;;;;;;;16.57;12.70;;;27.20;61.50;;;;;;5145761;27;20469;-89
2022/07/21 00:34:38;;;;;;;12.13;10.93;;;27.50;60.80;;;;;;5126860;27;20787;-88
2022/07/21 00:37:05;;;;;;;15.27;12.00;;;27.70;59.80;;;;;;5111227;27;20440;-88
2022/07/21 00:39:32;;;;;;;12.70;10.40;;;27.70;59.60;;;;;;5125527;27;20984;-87
2022/07/21 00:42:00;;;;;;;17.13;11.20;;;27.70;58.80;;;;;;5126552;27;20869;-88
2022/07/21 00:44:28;;;;;;;13.00;10.80;;;27.70;59.30;;;;;;5141371;27;20441;-87
2022/07/21 00:46:55;;;;;;;14.33;12.47;;;27.80;59.00;;;;;;5145525;27;20475;-88
2022/07/21 00:55:31;;;;;;;18.40;12.73;;;27.90;59.20;;;;;;5124585;27;20478;-87
2022/07/21 00:57:59;;;;;;;13.93;12.00;;;27.90;59.00;;;;;;5111786;27;20975;-87
2022/07/21 01:00:29;;;;;;;14.47;11.60;;;27.90;58.70;;;;;;5105385;27;20445;-88
2022/07/21 01:02:58;;;;;;;12.97;11.67;;;27.90;58.60;;;;;;5144813;27;20445;-89
2022/07/21 01:05:25;;;;;;;15.17;12.83;;;27.90;58.20;;;;;;5122699;27;21135;-88
2022/07/21 01:07:54;;;;;;;16.13;11.70;;;27.90;58.60;;;;;;5123648;27;20469;-88
2022/07/21 01:10:23;;;;;;;17.10;12.10;;;27.90;58.70;;;;;;5111844;27;20745;-88
2022/07/21 01:12:51;;;;;;;15.10;12.77;;;27.80;58.80;;;;;;5128319;27;20469;-87
2022/07/21 01:15:21;;;;;;;14.83;12.93;;;27.80;58.50;;;;;;5125597;27;20476;-88
2022/07/21 01:18:38;;;;;;;15.00;13.30;;;27.80;58.20;;;;;;5145240;27;20440;-88
2022/07/21 01:21:35;;;;;;;14.97;12.57;;;27.70;58.30;;;;;;5123592;27;20465;-87
2022/07/21 01:24:04;;;;;;;18.57;11.70;;;27.70;58.70;;;;;;5141485;27;20468;-88
2022/07/21 01:31:03;;;;;;;15.90;11.63;;;27.60;57.70;;;;;;5142244;27;20432;-88
2022/07/21 01:33:30;;;;;;;18.47;11.90;;;27.30;58.90;;;;;;5122567;27;20456;-89
2022/07/21 01:35:57;;;;;;;15.50;13.43;;;27.20;58.80;;;;;;5124793;27;20448;-88
2022/07/21 01:48:11;;;;;;;14.47;11.37;;;26.90;59.10;;;;;;5110386;27;20477;-88
2022/07/21 01:50:38;;;;;;;15.10;11.77;;;26.50;60.20;;;;;;5137283;27;20465;-87
2022/07/21 02:01:23;;;;;;;16.00;11.23;;;26.90;59.10;;;;;;5142166;27;20444;-88
2022/07/21 02:03:50;;;;;;;14.50;11.20;;;26.90;58.40;;;;;;5124960;27;20451;-88
2022/07/21 02:06:17;;;;;;;14.20;11.30;;;27.00;59.00;;;;;;5124742;27;20513;-88
2022/07/21 02:08:44;;;;;;;12.13;10.70;;;27.00;58.60;;;;;;5143821;27;20449;-88
2022/07/21 02:11:15;;;;;;;12.40;11.10;;;27.00;58.40;;;;;;5124852;27;21026;-88
2022/07/21 02:13:42;;;;;;;14.13;10.30;;;26.80;58.30;;;;;;5143628;27;20452;-87
2022/07/21 02:20:47;;;;;;;18.13;9.83;;;26.30;59.30;;;;;;5139394;27;20455;-88
2022/07/21 02:23:14;;;;;;;13.50;11.13;;;26.20;59.50;;;;;;5124267;27;20441;-88
2022/07/21 02:25:41;;;;;;;11.97;10.70;;;26.30;59.40;;;;;;5122871;27;20444;-87
2022/07/21 02:28:08;;;;;;;14.63;10.47;;;26.20;59.40;;;;;;5125506;27;20471;-88
2022/07/21 02:30:35;;;;;;;12.00;9.57;;;26.20;59.50;;;;;;5140725;27;20445;-90
2022/07/21 02:33:04;;;;;;;12.80;10.73;;;26.30;58.70;;;;;;5121459;27;20471;-88
2022/07/21 02:45:46;;;;;;;13.80;9.70;;;26.50;59.00;;;;;;5123083;27;20505;-88
2022/07/21 02:48:15;;;;;;;10.50;8.70;;;26.50;59.20;;;;;;5142713;27;20475;-87
2022/07/21 02:50:44;;;;;;;13.07;10.63;;;26.50;58.70;;;;;;5127692;27;20445;-87
2022/07/21 02:53:12;;;;;;;14.70;10.17;;;26.50;59.00;;;;;;5138877;27;20445;-86
2022/07/21 02:55:40;;;;;;;11.90;10.43;;;26.50;58.90;;;;;;5121555;27;20454;-87
2022/07/21 02:58:09;;;;;;;9.60;8.57;;;26.30;58.90;;;;;;5144135;27;20463;-87
2022/07/21 03:00:39;;;;;;;11.30;10.07;;;26.10;59.50;;;;;;5141695;27;21021;-89
2022/07/21 03:03:06;;;;;;;11.70;10.27;;;26.10;59.50;;;;;;5110115;27;20983;-89
2022/07/21 03:05:36;;;;;;;12.83;9.20;;;25.80;60.20;;;;;;5123706;27;20445;-88
2022/07/21 03:08:03;;;;;;;13.07;11.00;;;25.60;61.20;;;;;;5115451;27;20487;-87
2022/07/21 03:10:30;;;;;;;12.43;10.37;;;25.50;60.90;;;;;;5130774;27;20453;-88
2022/07/21 03:12:57;;;;;;;11.37;9.80;;;25.30;61.60;;;;;;5119686;27;20943;-89
2022/07/21 03:15:26;;;;;;;12.67;10.43;;;25.30;61.10;;;;;;5132703;27;20935;-87
2022/07/21 03:17:53;;;;;;;15.20;13.00;;;25.40;61.40;;;;;;5125049;27;20954;-88
2022/07/21 03:20:20;;;;;;;15.27;11.27;;;25.60;61.80;;;;;;5132953;27;20444;-88
2022/07/21 03:22:48;;;;;;;17.73;11.30;;;25.80;60.30;;;;;;5121985;27;20975;-88
2022/07/21 03:25:16;;;;;;;12.60;10.33;;;25.60;60.90;;;;;;5125602;27;20452;-88
2022/07/21 03:27:43;;;;;;;13.80;11.57;;;25.40;61.30;;;;;;5143157;27;20861;-88
2022/07/21 03:30:11;;;;;;;11.53;10.20;;;25.50;61.20;;;;;;5143027;27;20445;-88
2022/07/21 03:32:38;;;;;;;13.77;10.17;;;25.30;61.90;;;;;;5114494;27;20551;-90
2022/07/21 03:35:07;;;;;;;13.27;11.10;;;25.30;62.20;;;;;;5129099;27;21030;-88
2022/07/21 03:41:42;;;;;;;14.90;10.50;;;25.30;62.10;;;;;;5126631;27;20446;-88
2022/07/21 03:44:09;;;;;;;14.37;11.67;;;25.30;62.10;;;;;;5143771;27;20444;-88
2022/07/21 03:46:36;;;;;;;13.50;11.40;;;25.30;62.50;;;;;;5111941;27;20954;-88
2022/07/21 03:49:03;;;;;;;18.90;13.17;;;25.20;62.80;;;;;;5146779;27;20456;-89
2022/07/21 03:51:30;;;;;;;15.27;12.73;;;25.20;62.80;;;;;;5137184;27;20476;-88
2022/07/21 03:53:59;;;;;;;15.57;11.70;;;25.30;63.00;;;;;;5092803;27;20935;-88
2022/07/21 03:56:25;;;;;;;15.47;12.27;;;25.20;62.60;;;;;;5128472;27;20451;-88
2022/07/21 03:58:54;;;;;;;17.00;13.00;;;25.20;62.60;;;;;;5112682;27;20457;-88
2022/07/21 04:01:21;;;;;;;19.37;14.17;;;25.40;62.40;;;;;;5129946;27;20465;-91
2022/07/21 04:03:48;;;;;;;16.47;12.50;;;25.30;62.60;;;;;;5037135;27;20532;-91
2022/07/21 04:06:14;;;;;;;18.33;13.80;;;25.30;62.50;;;;;;5112517;27;20437;-89
2022/07/21 04:08:41;;;;;;;17.13;14.33;;;25.30;62.60;;;;;;5149629;27;20943;-88
2022/07/21 04:11:08;;;;;;;21.70;12.93;;;25.50;62.60;;;;;;5129287;27;20474;-88
2022/07/21 04:13:35;;;;;;;17.07;13.10;;;25.40;62.40;;;;;;5110414;27;20444;-88
2022/07/21 04:16:04;;;;;;;20.40;14.37;;;25.50;62.10;;;;;;5096243;27;20440;-89
2022/07/21 04:18:31;;;;;;;19.50;13.93;;;25.60;61.90;;;;;;5127135;27;20441;-88
2022/07/21 04:20:58;;;;;;;18.10;14.40;;;25.70;61.30;;;;;;5148466;27;20465;-88
2022/07/21 04:23:25;;;;;;;19.73;15.07;;;25.80;60.80;;;;;;5130498;27;20441;-90
2022/07/21 04:25:52;;;;;;;21.93;13.40;;;25.80;61.10;;;;;;5146505;27;20437;-89
2022/07/21 04:28:19;;;;;;;17.40;14.17;;;25.50;61.50;;;;;;5128601;27;20457;-88
2022/07/21 04:30:46;;;;;;;21.70;15.93;;;25.40;62.00;;;;;;5124741;27;20453;-88
2022/07/21 04:33:14;;;;;;;20.07;16.07;;;25.50;62.00;;;;;;5129496;27;20444;-89
2022/07/21 04:35:41;;;;;;;18.60;14.60;;;25.50;62.10;;;;;;5109141;27;20457;-88
2022/07/21 04:38:10;;;;;;;18.47;15.30;;;25.60;62.10;;;;;;5113589;27;21212;-90
2022/07/21 04:40:37;;;;;;;20.93;16.67;;;25.60;62.10;;;;;;5126589;27;20445;-88
2022/07/21 04:43:04;;;;;;;19.93;16.53;;;25.70;61.60;;;;;;5116797;27;20972;-90
2022/07/21 04:45:31;;;;;;;17.93;14.33;;;25.40;63.00;;;;;;5117568;27;20559;-88
2022/07/21 04:47:59;;;;;;;18.27;15.17;;;25.40;62.60;;;;;;5112498;27;21110;-89
2022/07/21 04:50:28;;;;;;;17.77;15.27;;;25.40;63.30;;;;;;5104706;27;20941;-87
2022/07/21 04:52:56;;;;;;;18.00;13.80;;;25.30;63.40;;;;;;5142075;27;20453;-89
2022/07/21 04:59:30;;;;;;;19.23;14.27;;;25.50;62.00;;;;;;5122890;27;20425;-88
2022/07/21 05:01:58;;;;;;;20.83;14.33;;;25.50;62.00;;;;;;5131411;27;20475;-88
2022/07/21 05:04:25;;;;;;;18.30;14.10;;;25.60;62.70;;;;;;5125238;27;20449;-89
2022/07/21 05:06:54;;;;;;;14.80;12.50;;;25.60;61.90;;;;;;5106774;27;20442;-88
2022/07/21 05:10:12;;;;;;;17.97;13.83;;;25.60;61.80;;;;;;5127716;27;20453;-90
2022/07/21 05:13:30;;;;;;;15.80;12.70;;;25.60;62.30;;;;;;5145461;27;20447;-89
2022/07/21 05:15:57;;;;;;;17.33;12.87;;;25.80;61.90;;;;;;5119091;27;21020;-90
2022/07/21 05:22:32;;;;;;;15.27;11.60;;;25.90;61.20;;;;;;5109392;27;20428;-88
2022/07/21 05:24:59;;;;;;;14.00;12.50;;;26.00;60.90;;;;;;5128505;27;20445;-88
2022/07/21 05:27:26;;;;;;;14.13;11.90;;;26.00;60.90;;;;;;5123427;27;20476;-88
2022/07/21 05:29:54;;;;;;;12.80;11.50;;;25.90;61.10;;;;;;5129228;27;20449;-88
2022/07/21 05:36:29;;;;;;;12.20;10.90;;;25.70;60.50;;;;;;5119917;27;20940;-89
2022/07/21 05:38:57;;;;;;;14.00;11.10;;;25.70;60.10;;;;;;5111999;27;20441;-88
2022/07/21 05:41:24;;;;;;;15.87;11.33;;;25.60;60.80;;;;;;5092622;27;20842;-90
2022/07/21 05:43:51;;;;;;;13.50;11.93;;;25.70;60.90;;;;;;5149032;27;20448;-89
2022/07/21 05:46:18;;;;;;;14.77;11.03;;;25.80;61.00;;;;;;5147932;27;20456;-88
2022/07/21 05:48:45;;;;;;;12.73;11.43;;;25.70;60.10;;;;;;5129612;27;20465;-89
2022/07/21 05:51:12;;;;;;;15.70;11.70;;;25.70;60.80;;;;;;5120369;27;20473;-88
2022/07/21 05:53:39;;;;;;;14.40;10.50;;;25.60;60.80;;;;;;5091794;27;20450;-89
2022/07/21 05:56:08;;;;;;;16.10;11.10;;;25.60;60.50;;;;;;5112920;27;20982;-88
2022/07/21 05:58:35;;;;;;;15.03;12.00;;;25.80;60.10;;;;;;5149384;27;20521;-88
2022/07/21 06:01:12;;;;;;;12.07;10.80;;;26.00;60.30;;;;;;5129762;27;20480;-89
2022/07/21 06:03:41;;;;;;;13.20;10.87;;;26.00;59.70;;;;;;5129341;27;20445;-90
2022/07/21 06:06:08;;;;;;;15.73;10.50;;;26.10;59.70;;;;;;5146531;27;20443;-90
2022/07/21 06:08:37;;;;;;;12.50;10.37;;;26.30;59.60;;;;;;5142304;27;20469;-91
2022/07/21 06:11:04;;;;;;;19.13;11.03;;;26.50;60.00;;;;;;5146785;27;20905;-89
2022/07/21 06:13:32;;;;;;;12.50;10.77;;;26.50;59.00;;;;;;5127108;27;20449;-88
2022/07/21 06:15:59;;;;;;;16.20;11.80;;;26.50;58.40;;;;;;5127113;27;20944;-89
2022/07/21 06:18:26;;;;;;;14.47;11.33;;;26.60;59.00;;;;;;5122144;27;20449;-89
2022/07/21 06:20:53;;;;;;;11.80;10.17;;;26.60;59.10;;;;;;5131306;27;20510;-88
2022/07/21 06:23:21;;;;;;;11.83;10.63;;;26.70;58.20;;;;;;5135988;27;20444;-88
2022/07/21 06:29:58;;;;;;;14.43;11.10;;;26.80;58.20;;;;;;5127156;27;20428;-89
2022/07/21 06:32:25;;;;;;;11.17;10.17;;;26.90;58.40;;;;;;5129188;27;20551;-89
2022/07/21 06:34:52;;;;;;;13.70;12.20;;;27.00;58.70;;;;;;5106799;27;20441;-89
2022/07/21 06:37:21;;;;;;;19.03;13.03;;;27.00;57.90;;;;;;5116319;27;20458;-89
2022/07/21 06:40:39;;;;;;;14.70;11.47;;;26.80;57.30;;;;;;5104854;27;20448;-88
2022/07/21 06:43:56;;;;;;;15.60;12.00;;;26.70;57.60;;;;;;5142252;27;20495;-89
2022/07/21 06:46:25;;;;;;;14.40;11.37;;;26.80;57.70;;;;;;5133993;27;20852;-88
2022/07/21 06:48:52;;;;;;;12.53;11.00;;;26.80;57.80;;;;;;5145828;27;20465;-89
2022/07/21 06:51:19;;;;;;;17.50;10.83;;;26.90;58.00;;;;;;5108097;27;20839;-87
2022/07/21 06:53:46;;;;;;;13.30;10.63;;;27.10;58.00;;;;;;5145398;27;20471;-87
2022/07/21 06:56:13;;;;;;;10.20;9.10;;;27.30;56.70;;;;;;5107735;27;20489;-89
2022/07/21 06:58:39;;;;;;;14.03;9.23;;;27.40;55.70;;;;;;5128002;27;20449;-87
2022/07/21 07:01:07;;;;;;;9.73;8.33;;;27.50;55.40;;;;;;5125124;27;20460;-87
2022/07/21 07:03:35;;;;;;;11.33;9.67;;;27.50;54.90;;;;;;5133484;27;20918;-89
2022/07/21 07:06:03;;;;;;;13.50;9.20;;;27.70;54.30;;;;;;5122048;27;21142;-89
2022/07/21 07:12:38;;;;;;;8.17;7.47;;;27.30;54.10;;;;;;5128712;27;20436;-86
2022/07/21 07:15:06;;;;;;;14.00;7.93;;;27.40;53.30;;;;;;5110037;27;20457;-92
2022/07/21 07:17:33;;;;;;;9.83;8.40;;;27.30;52.70;;;;;;5099284;27;20452;-91
2022/07/21 07:20:03;;;;;;;9.80;8.23;;;27.20;53.20;;;;;;5126768;27;20456;-90
2022/07/21 07:22:30;;;;;;;9.13;8.23;;;27.20;53.60;;;;;;5124953;27;20481;-91
2022/07/21 07:24:57;;;;;;;9.70;7.60;;;27.40;53.10;;;;;;5109202;27;20440;-91
2022/07/21 07:27:24;;;;;;;9.17;8.17;;;27.40;52.30;;;;;;5103488;27;20457;-89
2022/07/21 07:29:51;;;;;;;8.57;7.77;;;27.40;53.60;;;;;;5100443;27;20467;-89
2022/07/21 07:32:18;;;;;;;10.47;8.13;;;27.50;52.10;;;;;;5128360;27;20477;-89
2022/07/21 07:34:45;;;;;;;12.03;8.10;;;27.70;52.30;;;;;;5108021;27;20449;-90
2022/07/21 07:37:13;;;;;;;10.37;7.90;;;27.80;52.30;;;;;;5124162;27;20985;-90
2022/07/21 07:39:40;;;;;;;7.90;7.17;;;27.80;51.10;;;;;;5139370;27;20465;-90
2022/07/21 07:42:08;;;;;;;9.70;8.40;;;28.00;51.40;;;;;;5112295;27;20460;-91
2022/07/21 07:44:35;;;;;;;14.07;9.10;;;28.10;51.30;;;;;;5108723;27;20445;-89
2022/07/21 07:47:02;;;;;;;10.23;7.70;;;27.80;51.80;;;;;;5144839;27;20822;-89
2022/07/21 07:49:29;;;;;;;9.93;8.53;;;27.70;51.60;;;;;;5136129;27;20469;-91
2022/07/21 07:51:57;;;;;;;10.67;8.13;;;28.00;51.50;;;;;;5149603;27;20468;-90
2022/07/21 07:54:25;;;;;;;9.57;8.57;;;28.00;50.70;;;;;;5107040;27;20880;-89
2022/07/21 07:56:52;;;;;;;10.40;9.40;;;28.10;52.00;;;;;;5137339;27;20456;-89
2022/07/21 07:59:19;;;;;;;8.90;8.10;;;28.20;50.80;;;;;;5140281;27;20437;-88
2022/07/21 08:01:46;;;;;;;8.23;7.43;;;28.20;50.40;;;;;;5125544;27;20465;-90
2022/07/21 08:04:14;;;;;;;7.40;6.80;;;28.30;49.40;;;;;;5107095;27;20433;-90
2022/07/21 08:06:42;;;;;;;8.50;7.60;;;28.30;49.30;;;;;;5110697;27;21107;-89
2022/07/21 08:09:09;;;;;;;8.10;7.30;;;28.40;49.80;;;;;;5137918;27;20514;-89
2022/07/21 08:11:38;;;;;;;11.23;7.10;;;28.30;49.30;;;;;;5131601;27;20513;-88
2022/07/21 08:14:31;;;;;;;7.27;6.57;;;28.00;49.50;;;;;;5103798;27;20444;-88
2022/07/21 08:16:58;;;;;;;9.10;7.90;;;27.60;50.30;;;;;;5114039;27;20456;-89
2022/07/21 08:19:25;;;;;;;7.53;6.73;;;27.80;51.70;;;;;;5102349;27;20467;-88
2022/07/21 08:21:52;;;;;;;11.10;7.17;;;27.80;49.90;;;;;;5122910;27;20476;-89
2022/07/21 08:24:19;;;;;;;8.10;7.00;;;27.90;51.00;;;;;;5134458;27;20884;-84
2022/07/21 08:26:47;;;;;;;7.90;7.20;;;28.20;50.90;;;;;;5141769;27;20456;-89
2022/07/21 08:29:14;;;;;;;7.23;6.63;;;28.00;48.70;;;;;;5118495;27;20477;-88
2022/07/21 08:31:42;;;;;;;6.50;5.90;;;27.90;49.30;;;;;;5140956;27;20471;-90
2022/07/21 08:34:33;;;;;;;9.53;7.33;;;28.00;50.20;;;;;;5144846;27;20445;-91
2022/07/21 08:37:00;;;;;;;8.27;6.43;;;27.80;50.10;;;;;;5101283;27;20460;-90
2022/07/21 08:39:27;;;;;;;7.27;6.57;;;27.70;50.20;;;;;;5124064;27;20449;-90
2022/07/21 08:41:55;;;;;;;8.37;7.23;;;27.70;50.80;;;;;;5140201;27;20472;-91
2022/07/21 08:44:23;;;;;;;8.27;7.47;;;27.40;51.90;;;;;;5134038;27;20449;-91
2022/07/21 08:46:51;;;;;;;8.10;6.80;;;27.40;51.20;;;;;;5130649;27;20502;-89
2022/07/21 08:49:22;;;;;;;9.17;7.30;;;27.40;52.00;;;;;;5126998;27;20453;-90
2022/07/21 08:51:51;;;;;;;9.13;8.10;;;27.60;52.10;;;;;;5113600;27;20848;-90
2022/07/21 08:54:18;;;;;;;8.10;7.30;;;27.30;51.60;;;;;;5130516;27;21018;-90
2022/07/21 08:57:35;;;;;;;9.73;7.10;;;27.50;52.20;;;;;;5130823;27;20507;-91
2022/07/21 09:04:42;;;;;;;8.57;7.73;;;27.90;49.80;;;;;;5101169;27;21226;-91
2022/07/21 09:07:09;;;;;;;9.00;7.10;;;27.90;49.60;;;;;;5129154;27;20460;-91
2022/07/21 09:09:36;;;;;;;7.43;6.57;;;28.20;49.70;;;;;;5143435;27;20461;-90
2022/07/21 09:12:06;;;;;;;11.30;7.90;;;28.70;48.80;;;;;;5141366;27;20475;-90
2022/07/21 09:15:13;;;;;;;6.83;6.23;;;29.00;49.30;;;;;;5124591;27;20449;-91
2022/07/21 09:17:40;;;;;;;8.07;7.27;;;29.30;47.50;;;;;;5106628;27;20445;-90
2022/07/21 09:20:22;;;;;;;6.93;6.33;;;29.20;47.30;;;;;;5109970;27;20451;-90
2022/07/21 09:23:02;;;;;;;6.80;5.47;;;29.00;47.20;;;;;;5127517;27;20487;-90
2022/07/21 09:25:39;;;;;;;6.63;6.03;;;29.00;46.70;;;;;;5141072;27;20497;-94
2022/07/21 09:28:31;;;;;;;6.60;6.00;;;29.10;45.90;;;;;;5133552;27;21169;-92
2022/07/21 09:31:01;;;;;;;7.30;6.63;;;29.10;45.30;;;;;;5098217;27;20572;-91
2022/07/21 09:33:32;;;;;;;8.27;6.20;;;29.20;46.40;;;;;;5080670;27;20454;-90
2022/07/21 09:36:25;;;;;;;6.70;6.00;;;29.50;46.40;;;;;;5129353;27;20622;-90
2022/07/21 09:38:54;;;;;;;7.03;5.90;;;29.70;45.50;;;;;;5139250;27;20441;-90
2022/07/21 09:41:23;;;;;;;7.30;6.37;;;29.80;43.80;;;;;;5140218;27;20705;-89
2022/07/21 09:43:51;;;;;;;7.17;6.03;;;29.80;43.60;;;;;;5143279;27;20449;-90
2022/07/21 09:46:20;;;;;;;6.60;6.00;;;29.90;44.30;;;;;;5124506;27;21058;-90
2022/07/21 09:48:49;;;;;;;6.20;5.70;;;30.10;44.10;;;;;;5140713;27;20476;-90
2022/07/21 09:51:29;;;;;;;5.87;5.30;;;30.20;43.80;;;;;;5100701;27;20565;-89
2022/07/21 09:54:00;;;;;;;6.90;5.73;;;30.50;42.70;;;;;;5143977;27;20539;-89
2022/07/21 09:56:32;;;;;;;6.17;5.57;;;30.70;43.10;;;;;;5138497;27;20531;-88
2022/07/21 09:59:00;;;;;;;6.13;5.53;;;30.60;41.50;;;;;;5144999;27;21057;-90
2022/07/21 10:01:29;;;;;;;6.20;5.40;;;30.60;43.50;;;;;;5135121;27;20477;-92
2022/07/21 10:03:57;;;;;;;6.17;4.50;;;31.00;42.40;;;;;;5114707;27;20494;-89
2022/07/21 10:06:28;;;;;;;5.33;4.93;;;31.50;41.70;;;;;;5115482;27;20944;-89
2022/07/21 10:08:57;;;;;;;6.10;5.00;;;31.70;41.20;;;;;;5143708;27;20517;-89
2022/07/21 10:11:24;;;;;;;5.43;4.87;;;31.30;38.10;;;;;;5142170;27;20456;-90
2022/07/21 10:13:51;;;;;;;4.83;4.43;;;30.50;39.60;;;;;;5118741;27;20823;-88
2022/07/21 10:16:19;;;;;;;5.40;4.90;;;30.30;40.40;;;;;;5147063;27;20441;-89
2022/07/21 10:18:56;;;;;;;5.87;5.33;;;30.60;41.20;;;;;;5128282;27;20453;-91
2022/07/21 10:21:35;;;;;;;6.63;5.10;;;30.50;42.00;;;;;;5112940;27;20472;-89
2022/07/21 10:24:02;;;;;;;5.00;4.60;;;30.60;42.70;;;;;;5130288;27;20442;-91
2022/07/21 10:26:29;;;;;;;5.60;5.10;;;30.80;41.10;;;;;;5124879;27;20460;-90
2022/07/21 10:28:56;;;;;;;5.70;5.20;;;30.80;40.60;;;;;;5108004;27;20483;-89
2022/07/21 10:31:27;;;;;;;5.40;4.90;;;30.50;42.00;;;;;;5109672;27;20468;-90
2022/07/21 10:33:59;;;;;;;7.77;5.03;;;30.60;42.70;;;;;;5130888;27;20441;-89
2022/07/21 10:36:45;;;;;;;4.80;4.40;;;30.60;42.00;;;;;;5144064;27;22061;-89
2022/07/21 10:39:26;;;;;;;5.30;4.80;;;30.80;41.00;;;;;;5143976;27;20433;-88
2022/07/21 10:41:56;;;;;;;5.87;5.30;;;30.80;42.10;;;;;;5118607;27;20478;-90
2022/07/21 10:44:47;;;;;;;6.00;5.40;;;30.80;41.10;;;;;;5139408;27;20476;-89
2022/07/21 10:47:18;;;;;;;6.37;4.93;;;31.00;40.50;;;;;;5122561;27;20453;-89
2022/07/21 10:49:54;;;;;;;5.33;4.70;;;31.10;41.00;;;;;;5123290;27;20559;-89
2022/07/21 10:53:01;;;;;;;6.03;4.77;;;31.50;38.80;;;;;;5137403;27;20555;-87
2022/07/21 10:55:31;;;;;;;5.33;4.83;;;31.30;39.40;;;;;;5088924;27;20532;-89
2022/07/21 10:58:27;;;;;;;4.63;4.20;;;31.40;39.60;;;;;;5125559;27;20805;-90
2022/07/21 11:01:45;;;;;;;5.50;5.00;;;31.70;38.20;;;;;;5125191;27;20452;-89
2022/07/21 11:09:13;;;;;;;4.40;4.10;;;31.40;39.30;;;;;;5110149;27;20420;-89
2022/07/21 11:11:56;;;;;;;5.33;4.83;;;31.00;39.40;;;;;;5099739;27;20567;-88
2022/07/21 11:14:43;;;;;;;5.37;4.87;;;30.40;39.50;;;;;;5082962;27;20449;-87
2022/07/21 11:21:54;;;;;;;6.03;4.80;;;30.00;42.40;;;;;;5120158;27;20884;-86
2022/07/21 11:24:27;;;;;;;5.27;4.77;;;30.90;40.50;;;;;;5112171;27;20452;-87
2022/07/21 11:26:58;;;;;;;4.83;4.37;;;31.30;40.10;;;;;;5109182;27;20448;-88
2022/07/21 11:29:25;;;;;;;5.80;5.30;;;31.70;39.90;;;;;;5136199;27;20484;-88
2022/07/21 11:31:53;;;;;;;5.53;5.03;;;31.50;38.20;;;;;;5127003;27;20476;-88
2022/07/21 11:34:20;;;;;;;5.43;4.93;;;31.60;40.20;;;;;;5120839;27;20498;-88
2022/07/21 11:36:47;;;;;;;5.07;4.67;;;31.90;38.20;;;;;;5139203;27;20448;-88
2022/07/21 11:39:18;;;;;;;6.00;5.50;;;31.70;38.30;;;;;;5120196;27;20441;-88
2022/07/21 11:41:47;;;;;;;5.47;5.07;;;31.80;38.80;;;;;;5119568;27;20509;-88
2022/07/21 11:44:23;;;;;;;5.43;4.83;;;31.60;37.60;;;;;;5137878;27;20456;-88
2022/07/21 11:51:00;;;;;;;5.80;5.30;;;31.90;39.00;;;;;;5139704;27;20490;-88
2022/07/21 11:53:27;;;;;;;6.00;5.50;;;31.90;38.10;;;;;;5135737;27;21129;-88
2022/07/21 11:55:54;;;;;;;10.40;4.93;;;31.90;38.20;;;;;;5115674;27;21200;-88
2022/07/21 11:58:22;;;;;;;5.40;4.90;;;31.90;38.90;;;;;;5141405;27;20950;-88
2022/07/21 12:00:49;;;;;;;5.93;5.43;;;32.10;38.00;;;;;;5122856;27;20983;-87
2022/07/21 12:03:16;;;;;;;6.20;5.70;;;32.00;38.20;;;;;;5140498;27;20445;-91
2022/07/21 12:05:44;;;;;;;5.20;4.50;;;32.10;37.10;;;;;;5138367;27;20812;-88
2022/07/21 12:12:45;;;;;;;8.70;5.30;;;32.30;38.10;;;;;;5144776;27;20547;-88
2022/07/21 12:15:16;;;;;;;5.20;4.70;;;32.30;37.20;;;;;;5113811;27;20452;-88
2022/07/21 12:17:45;;;;;;;5.13;4.63;;;32.40;36.50;;;;;;5099163;27;20437;-88
2022/07/21 12:24:21;;;;;;;5.90;5.30;;;32.90;35.20;;;;;;5135603;27;20435;-87
2022/07/21 12:26:48;;;;;;;5.30;4.80;;;32.60;36.00;;;;;;5126718;27;21136;-90
2022/07/21 12:29:26;;;;;;;5.90;5.40;;;32.50;35.90;;;;;;5141734;27;20483;-88
2022/07/21 12:31:54;;;;;;;6.13;5.53;;;32.30;35.60;;;;;;5126526;27;20475;-88
2022/07/21 12:34:24;;;;;;;6.47;5.40;;;32.10;36.70;;;;;;5139826;27;20449;-88
2022/07/21 12:36:51;;;;;;;5.20;4.80;;;32.10;37.10;;;;;;5145543;27;20441;-88
2022/07/21 12:42:07;;;;;;;5.70;5.20;;;32.00;35.30;;;;;;5103210;27;21199;-88
2022/07/21 12:44:35;;;;;;;5.63;4.60;;;32.10;35.30;;;;;;5107341;27;20452;-89
2022/07/21 12:47:17;;;;;;;5.53;5.03;;;32.10;36.90;;;;;;5145369;27;20459;-88
2022/07/21 12:49:58;;;;;;;6.17;5.57;;;31.90;35.70;;;;;;5115524;27;20895;-89
2022/07/21 12:56:34;;;;;;;5.53;5.03;;;31.70;37.60;;;;;;5127016;27;20455;-89
2022/07/21 12:59:02;;;;;;;5.67;5.27;;;31.40;36.30;;;;;;5146583;27;20441;-88
2022/07/21 13:01:32;;;;;;;6.30;5.37;;;31.30;37.00;;;;;;5125615;27;20496;-89
2022/07/21 13:04:02;;;;;;;8.30;5.63;;;31.40;37.50;;;;;;5141542;27;20814;-88
2022/07/21 13:06:29;;;;;;;6.50;5.67;;;31.40;37.60;;;;;;5128826;27;20456;-88
2022/07/21 13:08:56;;;;;;;6.57;5.97;;;31.60;37.90;;;;;;5143700;27;20892;-89
2022/07/21 13:11:23;;;;;;;6.03;5.43;;;31.40;37.50;;;;;;5143239;27;20529;-88
2022/07/21 13:13:52;;;;;;;7.20;4.93;;;31.40;38.00;;;;;;5144282;27;20456;-88
2022/07/21 13:16:20;;;;;;;9.00;6.20;;;31.30;38.60;;;;;;5123239;27;20476;-87
2022/07/21 13:18:48;;;;;;;5.27;4.87;;;31.50;37.90;;;;;;5145165;27;20545;-89
2022/07/21 13:21:16;;;;;;;5.90;5.30;;;31.60;37.90;;;;;;5110156;27;20997;-89
2022/07/21 13:23:43;;;;;;;6.43;5.80;;;31.90;37.50;;;;;;5125009;27;20453;-88
2022/07/21 13:26:10;;;;;;;8.73;5.53;;;32.00;36.50;;;;;;5108205;27;20445;-87
2022/07/21 13:28:37;;;;;;;8.97;5.70;;;31.70;36.50;;;;;;5114069;27;20445;-87
2022/07/21 13:31:06;;;;;;;6.50;5.43;;;31.90;36.70;;;;;;5107298;27;20464;-89
2022/07/21 13:33:34;;;;;;;6.33;5.73;;;32.00;35.90;;;;;;5106342;27;20449;-87
2022/07/21 13:36:01;;;;;;;6.43;5.87;;;32.10;34.80;;;;;;5144013;27;20441;-88
2022/07/21 13:38:29;;;;;;;7.53;5.17;;;32.20;33.90;;;;;;5141295;27;20955;-87
2022/07/21 13:40:57;;;;;;;8.37;6.47;;;32.30;34.50;;;;;;5126258;27;20798;-88
2022/07/21 13:43:24;;;;;;;6.23;5.63;;;32.50;33.50;;;;;;5144403;27;20449;-89
2022/07/21 13:45:51;;;;;;;6.20;5.60;;;32.80;33.90;;;;;;5142939;27;20476;-90
2022/07/21 13:48:18;;;;;;;6.23;5.63;;;32.90;33.80;;;;;;5143746;27;20452;-89
2022/07/21 13:50:45;;;;;;;6.40;5.87;;;33.00;34.20;;;;;;5104687;27;20472;-86
2022/07/21 13:53:12;;;;;;;6.57;5.90;;;33.40;33.20;;;;;;5127681;27;20451;-90
2022/07/21 13:55:40;;;;;;;7.47;5.83;;;33.80;32.70;;;;;;5135614;27;21315;-88
2022/07/21 13:58:08;;;;;;;7.90;6.63;;;33.70;30.70;;;;;;5136834;27;20461;-87
2022/07/21 14:00:35;;;;;;;7.33;6.60;;;33.40;31.60;;;;;;5119518;27;21050;-91
2022/07/21 14:03:03;;;;;;;6.00;5.50;;;33.10;32.60;;;;;;5122687;27;21155;-89
2022/07/21 14:05:30;;;;;;;8.20;6.30;;;33.30;32.50;;;;;;5117691;27;20528;-90
2022/07/21 14:07:57;;;;;;;8.17;6.27;;;33.30;31.80;;;;;;5126804;27;20527;-91
2022/07/21 14:10:24;;;;;;;7.07;5.53;;;33.30;31.60;;;;;;5114948;27;20481;-90
2022/07/21 14:12:52;;;;;;;6.87;6.20;;;33.30;30.90;;;;;;5123634;27;20471;-89
2022/07/21 14:15:19;;;;;;;8.10;7.40;;;33.30;30.40;;;;;;5090859;27;21199;-88
2022/07/21 14:17:46;;;;;;;7.30;6.70;;;33.20;30.30;;;;;;5122190;27;20434;-88
2022/07/21 14:20:13;;;;;;;6.33;5.77;;;33.10;30.60;;;;;;5105922;27;20445;-89
2022/07/21 14:22:40;;;;;;;6.63;5.97;;;33.00;30.80;;;;;;5138059;27;20566;-90
2022/07/21 14:25:22;;;;;;;7.97;6.63;;;32.80;31.40;;;;;;5106848;27;20436;-88
2022/07/21 14:27:50;;;;;;;7.43;6.70;;;32.80;31.80;;;;;;5108014;27;20442;-88
2022/07/21 14:30:20;;;;;;;6.60;6.00;;;32.80;31.70;;;;;;5095745;27;20484;-89
2022/07/21 14:32:48;;;;;;;7.23;6.63;;;32.90;31.50;;;;;;5146186;27;20457;-90
2022/07/21 14:35:18;;;;;;;6.10;5.60;;;32.90;31.80;;;;;;5130015;27;20441;-89
2022/07/21 14:37:46;;;;;;;7.50;6.80;;;33.00;32.10;;;;;;5124558;27;21038;-90
2022/07/21 14:40:15;;;;;;;7.67;6.90;;;33.20;31.70;;;;;;5111770;27;20444;-89
2022/07/21 14:42:43;;;;;;;7.60;6.90;;;33.40;32.30;;;;;;5121329;27;20473;-87
2022/07/21 14:45:10;;;;;;;7.60;6.57;;;33.60;31.50;;;;;;5119160;27;20459;-89